Last 30 Days

O'Neill Sea Odyssey

Daily Data | America/Los_Angeles
as of 7/29/21 12:11 AM PDT
Date Daily Max Temp (°F) Time of Max Temp Daily Min Temp (°F) Time of Min Temp Daily Rain (In) Seasonal Rainfall (In) Wind Spd (mph) Daily Max Wind (mph) Time of Max Wind Max Wind Dir (°) Dew Pt (°F) Max RH (%) Min RH (%) Bat Volt Min Day (V)
7/27/21 60.6 1056 56.6 0049 0.00 0.02 6.8 20.4 1433 SW | 224 55.8 95 86 13.2
7/26/21 59.3 1544 54.6 0111 0.00 0.02 4.2 12.2 1236 SSW | 201 54.3 96 84 13.2
7/25/21 57.9 1707 54.3 0919 0.00 0.02 5.1 15.4 1730 SW | 225 53.4 95 86 13.2
7/24/21 57.1 1640 52.3 0726 0.00 0.02 4.7 12.8 1603 SW | 220 52.4 96 85 13.2
7/23/21 57.6 1438 52.4 0534 0.00 0.02 4.7 11.4 1548 SW | 214 51.7 96 79 13.2
7/22/21 64.4 1611 52.6 0402 0.00 0.02 4.5 15.2 1218 SW | 218 52.1 94 67 13.1
7/21/21 66.2 1614 53.6 1014 0.00 0.02 4.2 11.6 1526 SW | 224 53.4 96 61 13.1
7/20/21 64.8 1630 53.2 0657 0.00 0.02 4.3 14.5 1213 SW | 226 53.6 96 69 13.1
7/19/21 62.9 1720 54.1 0722 0.00 0.02 6.3 19.6 1501 SW | 226 53.7 96 72 13.2
7/18/21 60.5 1953 52.8 0706 0.00 0.02 5.8 17.3 1421 SW | 225 53.2 96 79 13.2
7/17/21 58.3 1639 52.2 0454 0.00 0.02 4.4 11.2 1358 SSW | 192 52.1 95 83 13.2
7/16/21 59.9 1838 51.7 0727 0.00 0.02 5.9 19.0 1545 SW | 221 51.0 93 77 13.2
7/15/21 65.6 1751 53.2 0740 0.00 0.02 5.3 17.5 1244 SW | 228 51.6 92 62 13.1
7/14/21 64.9 0329 47.7 0330 0.00 0.02 5.8 14.1 1706 SW | 230 54.3 100 83 13.2
7/13/21 60.5 1714 53.8 0446 0.00 0.02 7.6 22.1 1518 SW | 226 53.0 100 73 13.2
7/12/21 66.7 1537 54.4 0609 0.00 0.02 4.7 12.8 1601 SW | 225 52.9 93 63 13.1
7/11/21 65.4 1349 54.5 0851 0.00 0.02 5.3 13.0 1953 ESE | 114 54.2 95 67 13.1
7/10/21 67.8 1519 55.8 1018 0.00 0.02 4.8 11.2 1610 SE | 129 54.9 96 60 13.1
7/9/21 66.3 1422 56.2 0537 0.00 0.02 4.6 12.0 1225 SW | 224 55.1 91 69 13.1
7/8/21 59.4 1345 51.7 0511 0.00 0.02 4.9 15.0 1515 SSW | 210 53.6 94 85 13.2
7/7/21 68.9 1740 52.9 0532 0.00 0.02 4.6 16.4 1250 SW | 233 53.3 91 57 13.1
7/6/21 67.9 1656 55.8 0626 0.00 0.02 4.5 12.6 1338 SW | 220 54.3 93 64 13.1
7/5/21 61.5 1827 54.3 0628 0.00 0.02 7.2 22.3 1553 SW | 229 53.6 94 77 13.2
7/4/21 59.4 1704 55.1 0604 0.00 0.02 7.6 18.5 1608 SW | 217 53.5 92 81 13.2
7/3/21 61.0 1601 55.6 0618 0.00 0.02 7.5 21.7 1436 SW | 226 54.2 94 78 13.2
7/2/21 66.2 1750 55.5 0658 0.02 0.02 5.9 19.6 1406 WSW | 244 55.0 100 69 13.1
7/1/21 63.6 1920 56.1 0021 0.00 0.00 6.7 20.0 1622 SW | 227 55.6 95 75 13.2
6/30/21 64.0 1654 57.3 0628 0.00 13.65 7.3 23.2 1429 SW | 228 55.4 92 74 13.2
6/29/21 70.3 1628 56.5 1009 0.00 13.65 4.1 11.6 1709 SE | 129 56.2 95 60 13.1
Max 70.3 - 57.3 - 0.02 - 7.6 23.2 - - 56.2 100 86 13.2
Avg - - - - - - 5.5 - - - 53.7 - - -
Min 57.1 - 47.7 - 0.00 - 4.1 11.2 - - 51.0 91 57 13.1